createdAt,value
2022-11-07T06:03:09.932Z,68.61
2022-11-07T06:08:30.957Z,68.97
2022-11-07T06:13:53.471Z,68.75
2022-11-07T06:19:14.179Z,69.18
2022-11-07T06:24:35.089Z,68.47
2022-11-07T06:29:55.737Z,68.29
2022-11-07T06:35:16.644Z,68.41
2022-11-07T06:40:38.480Z,68.10
2022-11-07T06:46:02.805Z,68.90
2022-11-07T06:51:23.742Z,68.00
2022-11-07T06:56:44.481Z,68.22
2022-11-07T07:02:05.646Z,68.23
2022-11-07T07:07:26.212Z,67.68
2022-11-07T07:12:47.065Z,67.70
2022-11-07T07:18:08.008Z,67.78
2022-11-07T07:23:28.797Z,68.28
2022-11-07T07:28:49.668Z,67.51
2022-11-07T07:34:11.045Z,67.53
2022-11-07T07:39:32.016Z,67.85
2022-11-07T07:44:52.964Z,67.60
2022-11-07T07:50:14.043Z,67.68
2022-11-07T07:55:35.605Z,67.78
2022-11-07T08:00:58.734Z,67.84
2022-11-07T08:06:19.622Z,67.09
2022-11-07T08:11:40.425Z,67.26
2022-11-07T08:17:01.262Z,67.49
2022-11-07T08:22:22.400Z,66.07
2022-11-07T08:27:43.246Z,66.22
2022-11-07T08:33:04.271Z,66.21
2022-11-07T08:38:25.543Z,66.18
2022-11-07T08:43:47.527Z,66.25
2022-11-07T08:49:08.691Z,66.44
2022-11-07T08:54:29.474Z,66.78
2022-11-07T08:59:50.307Z,66.58
2022-11-07T09:05:11.169Z,66.58
2022-11-07T09:10:31.970Z,66.75
2022-11-07T09:15:57.041Z,66.49
2022-11-07T09:21:22.478Z,66.47
2022-11-07T09:26:43.669Z,65.95
2022-11-07T09:32:17.508Z,66.51
2022-11-07T09:37:45.673Z,65.81
2022-11-07T09:43:24.627Z,65.71
2022-11-07T09:48:50.784Z,65.95
2022-11-07T09:54:22.079Z,65.59
2022-11-07T09:59:44.989Z,65.79
2022-11-07T10:05:06.242Z,65.63
2022-11-07T10:10:39.305Z,65.40
2022-11-07T10:16:09.160Z,65.38
2022-11-07T10:21:41.014Z,65.18
2022-11-07T10:27:02.584Z,64.97
2022-11-07T10:32:23.444Z,64.78
2022-11-07T10:38:04.792Z,64.61
2022-11-07T10:43:36.681Z,64.47
2022-11-07T10:49:00.392Z,64.55
2022-11-07T10:54:31.352Z,63.65
2022-11-07T10:59:52.371Z,63.24
2022-11-07T11:05:28.179Z,63.03
2022-11-07T11:10:50.435Z,63.33
2022-11-07T11:16:14.277Z,62.54
2022-11-07T11:21:40.916Z,62.10
2022-11-07T11:27:09.225Z,62.39
2022-11-07T11:32:41.231Z,61.89
2022-11-07T11:38:21.252Z,61.46
2022-11-07T11:43:49.118Z,61.40
2022-11-07T11:49:19.273Z,61.00
2022-11-07T11:54:40.431Z,61.19
2022-11-07T12:00:13.800Z,60.36
2022-11-07T12:06:02.921Z,60.09
2022-11-07T12:11:38.205Z,60.72
2022-11-07T12:17:03.984Z,60.59
2022-11-07T12:22:56.267Z,60.67
2022-11-07T12:28:20.206Z,60.75
2022-11-07T12:34:04.628Z,60.94
2022-11-07T12:39:34.633Z,60.88
2022-11-07T12:45:07.939Z,61.04
2022-11-07T12:50:56.096Z,60.43
2022-11-07T12:56:24.293Z,60.27
2022-11-07T13:02:05.259Z,60.48
2022-11-07T13:07:33.414Z,60.43
2022-11-07T13:13:15.917Z,60.60
2022-11-07T13:18:37.274Z,60.60
2022-11-07T13:24:05.971Z,60.76
2022-11-07T13:29:36.055Z,60.75
2022-11-07T13:35:00.556Z,61.00
2022-11-07T13:40:27.210Z,61.59
2022-11-07T13:46:00.045Z,60.69
2022-11-07T13:51:20.889Z,61.75
2022-11-07T13:56:59.434Z,61.86
2022-11-07T14:02:22.185Z,62.07
2022-11-07T14:07:54.319Z,61.72
2022-11-07T14:13:39.617Z,61.79
2022-11-07T14:19:07.397Z,62.32
2022-11-07T14:24:32.706Z,62.11
2022-11-07T14:30:01.991Z,62.65
2022-11-07T14:35:33.367Z,62.67
2022-11-07T14:41:01.077Z,62.75
2022-11-07T14:46:24.257Z,62.99
2022-11-07T14:51:45.104Z,63.09
2022-11-07T14:57:07.123Z,63.29
2022-11-07T15:02:33.083Z,63.28
2022-11-07T15:07:55.047Z,63.33
2022-11-07T15:13:24.963Z,63.62
2022-11-07T15:18:48.585Z,63.57
2022-11-07T15:24:26.635Z,63.91
2022-11-07T15:29:58.455Z,64.03
2022-11-07T15:35:42.988Z,63.97
2022-11-07T15:41:01.349Z,64.17
2022-11-07T15:46:26.999Z,64.25
2022-11-07T15:51:47.838Z,64.15
2022-11-07T15:57:11.432Z,64.19
2022-11-07T16:02:32.540Z,64.46
2022-11-07T16:07:53.168Z,64.77
2022-11-07T16:13:15.041Z,64.83
2022-11-07T16:18:44.850Z,64.78
2022-11-07T16:24:05.933Z,64.98
2022-11-07T16:29:26.479Z,65.08
2022-11-07T16:34:47.683Z,65.39
2022-11-07T16:40:13.464Z,65.42
2022-11-07T16:45:35.932Z,65.57
2022-11-07T16:50:57.046Z,65.56
2022-11-07T16:56:26.848Z,66.13
2022-11-07T17:01:48.960Z,66.27
2022-11-07T17:07:14.825Z,66.27
2022-11-07T17:12:35.980Z,66.35
2022-11-07T17:18:00.587Z,66.33
2022-11-07T17:23:29.870Z,65.90
2022-11-07T17:28:52.960Z,66.28
2022-11-07T17:34:14.159Z,65.96
2022-11-07T17:39:35.028Z,66.16
2022-11-07T17:44:55.735Z,66.09
2022-11-07T17:50:19.076Z,65.99
2022-11-07T17:55:40.359Z,66.06
2022-11-07T18:01:01.180Z,66.62
2022-11-07T18:06:23.476Z,66.66
2022-11-07T18:11:44.890Z,66.36
2022-11-07T18:17:06.214Z,66.29
2022-11-07T18:22:27.142Z,66.64
2022-11-07T18:27:48.533Z,66.55
2022-11-07T18:33:09.305Z,66.55
2022-11-07T18:38:30.914Z,66.64
2022-11-07T18:43:54.148Z,66.57
2022-11-07T18:49:16.053Z,66.63
2022-11-07T18:54:37.064Z,66.53
2022-11-07T18:59:57.682Z,66.62
2022-11-07T19:05:18.556Z,66.61
2022-11-07T19:10:39.382Z,66.70
2022-11-07T19:16:00.901Z,66.51
2022-11-07T19:21:23.324Z,66.54
2022-11-07T19:26:44.018Z,66.66
2022-11-07T19:32:06.038Z,66.98
2022-11-07T19:37:26.904Z,66.72
2022-11-07T19:42:47.844Z,66.97
2022-11-07T19:48:08.627Z,66.83
2022-11-07T19:53:29.501Z,67.01
2022-11-07T19:58:50.349Z,67.19
2022-11-07T20:04:11.213Z,67.05
2022-11-07T20:09:32.147Z,66.95
2022-11-07T20:14:52.947Z,67.57
2022-11-07T20:20:14.082Z,67.30
2022-11-07T20:25:35.244Z,67.13
2022-11-07T20:30:56.165Z,67.35
2022-11-07T20:36:17.340Z,67.32
2022-11-07T20:41:41.360Z,67.59
2022-11-07T20:47:02.239Z,67.30
2022-11-07T20:52:22.960Z,67.15
2022-11-07T20:57:44.111Z,67.75
2022-11-07T21:03:05.128Z,67.67
2022-11-07T21:08:25.908Z,67.63
2022-11-07T21:13:52.685Z,67.88
2022-11-07T21:19:15.935Z,67.80
2022-11-07T21:24:36.728Z,67.48
2022-11-07T21:29:57.363Z,67.49
2022-11-07T21:35:18.162Z,67.89
2022-11-07T21:40:39.542Z,67.65
2022-11-07T21:46:13.434Z,68.17
2022-11-07T21:51:36.053Z,67.55
2022-11-07T21:56:56.943Z,67.78
2022-11-07T22:02:17.992Z,67.72
2022-11-07T22:07:38.648Z,67.78
2022-11-07T22:13:00.390Z,67.57
2022-11-07T22:18:22.798Z,67.71
2022-11-07T22:23:43.800Z,67.60
